Megargel, AL (36457)

8:55 PM CST on December 26, 2014 (GMT -0600)
Middleton | Change Station
CLOSE
Current Station
Airport
Location: Evergreen,
Elevation: 256 ft
Nearby Weather Stations

Elev 256 ft 31.42 °N, 87.04 °W | Updated 1 hour ago

Clear
Clear
45 °F
Feels Like 45 °F
N
0
Wind Variable Wind from North

Today
High -- | Low -- °F
--% Chance of Precip.
Yesterday
High -- | Low -- °F
Precip. -- in
6:46 AM 4:53 PM
Waxing Crescent, 31% visible
Pressure 30.28 in
Visibility 10.0 miles
Clouds Clear
Dew Point 42 °F
Humidity 90%
Rainfall 0.00 in
Snow Depth Not available.
UV 0 out of 12
Pollen 3.30 out of 12
Air Quality Not available.
Flu Activity Not available.
METAR KGZH 270153Z AUTO 00000KT 10SM CLR 07/06 A3028 RMK AO2 SLP253 T00720056

More Conditions Fewer Conditions

Pressure 30.28 in
Visibility 10.0 miles
Clouds Clear
Dew Point 42 °F
Humidity 90%
Rainfall 0.00 in
Snow Depth Not available.
UV 0 out of 12
Pollen 3.30 out of 12
Air Quality Not available.
Flu Activity Not available.
METAR KGZH 270153Z AUTO 00000KT 10SM CLR 07/06 A3028 RMK AO2 SLP253 T00720056

More Conditions Fewer Conditions

10-Day Weather Forecast

Almanac

Astronomy

Dec. 26, 2014 Rise Set
Actual Time
Civil Twilight
Nautical Twilight
Astronomical Twilight
Moon
Length of Visible Light
Length of Day
Tomorrow will be .
, % of the Moon is Illuminated

Today's Extremes

State Highs State Lows

Community

WunderPhotos

Upload Photos

1,780,818 photos uploaded!

WunderBlogs® & News

Nearby

Air Quality

  Air Quality AQ Index Pollutant
Not available.

Snow Depth

Station Depth Elevation

Earthquake Activity

City Distance Mag. Time & Date
Minimum magnitude displayed is 2.5.

Coastal Water Temperatures

Place Temperature

Nearby Weather Stations